createdAt,value
2023-04-21T00:02:23.634Z,43.20
2023-04-21T00:04:50.836Z,40.17
2023-04-21T00:07:18.069Z,40.40
2023-04-21T00:09:45.135Z,41.87
2023-04-21T00:12:13.547Z,41.67
2023-04-21T00:14:40.637Z,45.27
2023-04-21T00:17:07.694Z,41.17
2023-04-21T00:19:34.733Z,48.20
2023-04-21T00:22:01.808Z,44.73
2023-04-21T00:24:28.887Z,35.83
2023-04-21T00:26:55.951Z,41.97
2023-04-21T00:29:24.365Z,39.57
2023-04-21T00:31:51.534Z,37.37
2023-04-21T00:34:18.720Z,43.27
2023-04-21T00:36:45.806Z,43.70
2023-04-21T00:39:12.916Z,46.37
2023-04-21T00:41:40.096Z,46.20
2023-04-21T00:44:07.817Z,50.70
2023-04-21T00:46:36.479Z,43.70
2023-04-21T00:49:05.622Z,46.73
2023-04-21T00:51:33.884Z,45.77
2023-04-21T00:54:01.315Z,39.83
2023-04-21T00:56:29.068Z,44.20
2023-04-21T00:58:58.487Z,43.07
2023-04-21T01:01:25.850Z,39.90
2023-04-21T01:03:54.470Z,45.90
2023-04-21T01:06:21.537Z,36.63
2023-04-21T01:08:48.938Z,42.87
2023-04-21T01:11:16.453Z,36.13
2023-04-21T01:13:43.513Z,41.93
2023-04-21T01:16:16.515Z,43.10
2023-04-21T01:18:43.620Z,39.70
2023-04-21T01:21:12.153Z,41.40
2023-04-21T01:23:40.844Z,42.40
2023-04-21T01:26:08.034Z,44.80
2023-04-21T01:28:37.099Z,39.10
2023-04-21T01:31:05.002Z,42.27
2023-04-21T01:33:32.086Z,40.20
2023-04-21T01:35:59.214Z,39.83
2023-04-21T01:38:26.298Z,50.67
2023-04-21T01:40:55.188Z,46.27
2023-04-21T01:43:23.434Z,38.23
2023-04-21T01:45:50.602Z,42.67
2023-04-21T01:48:17.882Z,41.30
2023-04-21T01:50:44.972Z,40.77
2023-04-21T01:53:12.041Z,40.67
2023-04-21T01:55:39.211Z,45.60
2023-04-21T01:58:10.481Z,42.47
2023-04-21T02:00:37.708Z,37.20
2023-04-21T02:03:05.582Z,40.73
2023-04-21T02:05:32.845Z,43.63
2023-04-21T02:07:59.880Z,47.87
2023-04-21T02:10:27.003Z,43.70
2023-04-21T02:12:54.195Z,42.73
2023-04-21T02:15:22.631Z,39.13
2023-04-21T02:17:49.746Z,45.67
2023-04-21T02:20:16.919Z,47.40
2023-04-21T02:22:43.957Z,45.90
2023-04-21T02:25:11.092Z,39.83
2023-04-21T02:27:39.291Z,42.23
2023-04-21T02:30:07.267Z,46.07
2023-04-21T02:32:35.802Z,48.67
2023-04-21T02:35:05.042Z,44.67
2023-04-21T02:37:32.145Z,43.00
2023-04-21T02:39:59.294Z,42.00
2023-04-21T02:42:26.374Z,45.77
2023-04-21T02:44:53.494Z,40.87
2023-04-21T02:47:20.603Z,42.83
2023-04-21T02:49:49.019Z,45.30
2023-04-21T02:52:16.111Z,44.53
2023-04-21T02:54:43.174Z,49.60
2023-04-21T02:57:10.328Z,47.33
2023-04-21T02:59:37.469Z,43.20
2023-04-21T03:02:04.566Z,50.43
2023-04-21T03:04:31.756Z,48.43
2023-04-21T03:07:00.250Z,48.43
2023-04-21T03:09:27.284Z,51.30
2023-04-21T03:11:54.354Z,50.60
2023-04-21T03:14:21.399Z,49.23
2023-04-21T03:16:48.530Z,52.03
2023-04-21T03:19:15.565Z,48.90
2023-04-21T03:21:42.591Z,49.77
2023-04-21T03:24:11.014Z,48.63
2023-04-21T03:26:39.271Z,51.07
2023-04-21T03:29:06.868Z,49.47
2023-04-21T03:31:34.001Z,50.80
2023-04-21T03:34:01.399Z,56.83
2023-04-21T03:36:28.528Z,50.30
2023-04-21T03:38:59.097Z,54.20
2023-04-21T03:41:35.158Z,51.00
2023-04-21T03:44:03.703Z,49.93
2023-04-21T03:46:30.891Z,53.93
2023-04-21T03:48:58.097Z,47.97
2023-04-21T03:51:25.207Z,55.60
2023-04-21T03:53:52.221Z,50.27
2023-04-21T03:56:19.314Z,53.23
2023-04-21T03:58:47.646Z,45.53
2023-04-21T04:01:14.753Z,48.97
2023-04-21T04:03:41.922Z,49.40
2023-04-21T04:06:09.060Z,60.33
2023-04-21T04:08:36.107Z,47.60
2023-04-21T04:11:03.179Z,52.53
2023-04-21T04:13:30.248Z,55.80
2023-04-21T04:15:58.710Z,52.60
2023-04-21T04:18:25.874Z,56.53
2023-04-21T04:20:52.916Z,53.10
2023-04-21T04:23:19.961Z,54.90
2023-04-21T04:25:47.066Z,56.17
2023-04-21T04:28:14.097Z,64.00
2023-04-21T04:30:41.241Z,62.47
2023-04-21T04:33:09.700Z,62.47
2023-04-21T04:35:36.836Z,58.23
2023-04-21T04:38:03.846Z,59.00
2023-04-21T04:40:30.956Z,68.43
2023-04-21T04:42:58.037Z,64.77
2023-04-21T04:45:26.862Z,64.73
2023-04-21T04:47:53.939Z,52.67
2023-04-21T04:50:22.638Z,56.17
2023-04-21T04:52:49.709Z,55.87
2023-04-21T04:55:16.777Z,54.20
2023-04-21T04:57:43.822Z,60.27
2023-04-21T05:00:11.399Z,55.90
2023-04-21T05:02:38.886Z,55.63
2023-04-21T05:05:07.200Z,52.40
2023-04-21T05:07:36.062Z,63.37
2023-04-21T05:10:03.312Z,62.57
2023-04-21T05:12:31.474Z,51.50
2023-04-21T05:14:58.572Z,53.83
2023-04-21T05:17:25.629Z,54.70
2023-04-21T05:19:52.714Z,55.83
2023-04-21T05:22:19.841Z,56.43
2023-04-21T05:24:48.348Z,52.50
2023-04-21T05:27:15.396Z,58.07
2023-04-21T05:29:42.545Z,52.20
2023-04-21T05:32:09.730Z,53.93
2023-04-21T05:34:36.832Z,51.37
2023-04-21T05:37:03.913Z,49.97
2023-04-21T05:39:30.983Z,47.10
2023-04-21T05:41:59.431Z,54.13
2023-04-21T05:44:26.658Z,51.70
2023-04-21T05:46:53.745Z,62.57
2023-04-21T05:49:20.908Z,51.77
2023-04-21T05:51:48.082Z,49.67
2023-04-21T05:54:15.326Z,56.57
2023-04-21T05:56:42.368Z,48.40
2023-04-21T05:59:10.827Z,56.40
2023-04-21T06:01:37.998Z,52.30
2023-04-21T06:04:05.462Z,50.00
2023-04-21T06:06:32.774Z,51.47
2023-04-21T06:09:00.029Z,52.60
2023-04-21T06:11:27.200Z,60.27
2023-04-21T06:13:54.241Z,55.20
2023-04-21T06:16:22.777Z,54.17
2023-04-21T06:18:49.998Z,44.77
2023-04-21T06:21:17.143Z,51.70
2023-04-21T06:23:44.248Z,54.97
2023-04-21T06:26:11.405Z,50.50
2023-04-21T06:28:38.487Z,49.70
2023-04-21T06:31:08.747Z,51.40
2023-04-21T06:33:37.725Z,48.00
2023-04-21T06:36:05.168Z,47.00
2023-04-21T06:38:32.282Z,51.53
2023-04-21T06:40:59.406Z,44.37
2023-04-21T06:43:26.560Z,50.60
2023-04-21T06:45:53.658Z,49.40
2023-04-21T06:48:20.830Z,48.90
2023-04-21T06:50:49.313Z,39.93
2023-04-21T06:53:16.381Z,40.37
2023-04-21T06:55:43.607Z,47.33
2023-04-21T06:58:10.821Z,41.60
2023-04-21T07:00:38.223Z,34.57
2023-04-21T07:03:05.517Z,39.40
2023-04-21T07:05:33.098Z,37.77
2023-04-21T07:08:01.532Z,36.23
2023-04-21T07:10:29.246Z,34.57
2023-04-21T07:12:56.527Z,39.57
2023-04-21T07:15:23.635Z,37.90
2023-04-21T07:17:50.711Z,33.03
2023-04-21T07:20:17.850Z,33.70
2023-04-21T07:22:44.945Z,33.73
2023-04-21T07:25:13.448Z,37.27
2023-04-21T07:27:40.501Z,34.63
2023-04-21T07:30:08.204Z,32.53
2023-04-21T07:32:35.368Z,34.90
2023-04-21T07:35:02.556Z,33.80
2023-04-21T07:37:29.602Z,29.47
2023-04-21T07:39:56.908Z,32.70
2023-04-21T07:42:25.305Z,38.73
2023-04-21T07:44:52.411Z,33.57
2023-04-21T07:47:19.538Z,33.17
2023-04-21T07:49:46.726Z,33.93
2023-04-21T07:52:13.903Z,34.33
2023-04-21T07:54:40.981Z,32.27
2023-04-21T07:57:08.103Z,29.03
2023-04-21T07:59:36.576Z,29.17
2023-04-21T08:02:03.789Z,32.10
2023-04-21T08:04:31.181Z,31.40
2023-04-21T08:06:58.525Z,33.60
2023-04-21T08:09:25.903Z,29.77
2023-04-21T08:11:53.053Z,30.50
2023-04-21T08:14:20.342Z,32.03
2023-04-21T08:16:49.053Z,32.00
2023-04-21T08:19:16.357Z,28.73
2023-04-21T08:21:43.401Z,30.80
2023-04-21T08:24:10.524Z,31.87
2023-04-21T08:26:37.582Z,27.87
2023-04-21T08:29:04.762Z,28.00
2023-04-21T08:31:31.987Z,31.37
2023-04-21T08:34:02.367Z,28.10
2023-04-21T08:36:30.766Z,28.27
2023-04-21T08:38:58.134Z,30.60
2023-04-21T08:41:25.405Z,29.50
2023-04-21T08:43:52.583Z,26.57
2023-04-21T08:46:19.959Z,35.30
2023-04-21T08:48:47.742Z,27.43
2023-04-21T08:51:20.189Z,28.53
2023-04-21T08:53:47.290Z,32.63
2023-04-21T08:56:14.463Z,29.07
2023-04-21T08:58:41.602Z,26.53
2023-04-21T09:01:08.935Z,24.70
2023-04-21T09:03:36.255Z,30.00
2023-04-21T09:06:04.572Z,26.13
2023-04-21T09:08:33.592Z,26.77
2023-04-21T09:11:01.305Z,27.10
2023-04-21T09:13:31.712Z,29.13
2023-04-21T09:15:59.256Z,29.60
2023-04-21T09:18:27.330Z,25.20
2023-04-21T09:21:06.669Z,27.63
2023-04-21T09:23:41.332Z,29.97
2023-04-21T09:26:10.773Z,28.00
2023-04-21T09:28:43.540Z,33.00
2023-04-21T09:31:14.765Z,29.13
2023-04-21T09:33:56.584Z,26.10
2023-04-21T09:36:26.172Z,30.23
2023-04-21T09:39:20.510Z,23.53
2023-04-21T09:41:45.102Z,27.87
2023-04-21T09:44:12.271Z,22.53
2023-04-21T09:46:41.439Z,28.63
2023-04-21T09:49:10.354Z,25.90
2023-04-21T09:52:09.643Z,29.43
2023-04-21T09:54:30.753Z,27.03
2023-04-21T09:57:01.737Z,23.07
2023-04-21T09:59:30.471Z,27.77
2023-04-21T10:01:59.020Z,22.17
2023-04-21T10:04:26.738Z,24.00
2023-04-21T10:06:55.180Z,25.20
2023-04-21T10:09:23.312Z,21.37
2023-04-21T10:11:51.909Z,30.03
2023-04-21T10:14:19.277Z,22.77
2023-04-21T10:16:56.382Z,26.00
2023-04-21T10:19:24.293Z,23.40
2023-04-21T10:21:51.336Z,20.17
2023-04-21T10:24:18.782Z,23.27
2023-04-21T10:26:46.271Z,24.37
2023-04-21T10:29:14.782Z,23.10
2023-04-21T10:31:50.608Z,22.87
2023-04-21T10:34:19.077Z,28.43
2023-04-21T10:36:51.227Z,20.40
2023-04-21T10:39:28.183Z,24.03
2023-04-21T10:41:56.225Z,18.70
2023-04-21T10:44:24.856Z,18.77
2023-04-21T10:46:52.623Z,20.87
2023-04-21T10:49:23.659Z,16.27
2023-04-21T10:52:07.666Z,20.63
2023-04-21T10:54:37.814Z,17.83
2023-04-21T10:57:07.261Z,19.30
2023-04-21T10:59:36.439Z,20.53
2023-04-21T11:02:03.921Z,20.60
2023-04-21T11:04:31.485Z,17.93
2023-04-21T11:07:08.831Z,18.33
2023-04-21T11:09:36.089Z,19.53
2023-04-21T11:12:04.059Z,17.93
2023-04-21T11:14:31.161Z,16.30
2023-04-21T11:16:59.784Z,16.00
2023-04-21T11:19:26.933Z,16.00
2023-04-21T11:21:54.505Z,18.23
2023-04-21T11:24:21.935Z,16.60
2023-04-21T11:26:49.096Z,15.93
2023-04-21T11:29:16.563Z,13.90
2023-04-21T11:31:44.634Z,15.27
2023-04-21T11:34:13.260Z,17.10
2023-04-21T11:36:41.257Z,12.27
2023-04-21T11:39:08.861Z,13.97
2023-04-21T11:41:36.773Z,15.43
2023-04-21T11:44:03.917Z,15.70
2023-04-21T11:46:31.041Z,14.03
2023-04-21T11:49:02.211Z,15.97
2023-04-21T11:51:34.613Z,15.37
2023-04-21T11:54:01.904Z,14.37
2023-04-21T11:56:28.992Z,14.70
2023-04-21T11:58:56.431Z,17.83
2023-04-21T12:01:23.496Z,16.50
2023-04-21T12:03:54.280Z,10.40
2023-04-21T12:06:22.364Z,11.87
2023-04-21T12:08:55.024Z,13.53
2023-04-21T12:11:22.160Z,14.67
2023-04-21T12:13:49.336Z,16.27
2023-04-21T12:16:16.460Z,14.27
2023-04-21T12:18:43.659Z,11.63
2023-04-21T12:21:15.087Z,15.17
2023-04-21T12:23:42.156Z,12.10
2023-04-21T12:26:10.880Z,12.20
2023-04-21T12:28:38.080Z,11.57
2023-04-21T12:31:05.256Z,11.90
2023-04-21T12:33:32.382Z,12.73
2023-04-21T12:35:59.482Z,10.53
2023-04-21T12:38:26.608Z,9.70
2023-04-21T12:40:53.699Z,10.83
2023-04-21T12:43:22.293Z,10.17
2023-04-21T12:45:50.032Z,14.00
2023-04-21T12:48:17.382Z,10.00
2023-04-21T12:50:44.560Z,9.93
2023-04-21T12:53:11.725Z,10.73
2023-04-21T12:55:39.173Z,11.05
2023-04-21T12:58:06.308Z,9.27
2023-04-21T13:00:34.825Z,10.52
2023-04-21T13:03:02.256Z,10.18
2023-04-21T13:05:29.514Z,10.18
2023-04-21T13:07:56.694Z,10.93
2023-04-21T13:10:23.868Z,9.45
2023-04-21T13:12:50.939Z,10.25
2023-04-21T13:15:18.044Z,11.17
2023-04-21T13:17:46.427Z,10.73
2023-04-21T13:20:13.595Z,8.70
2023-04-21T13:22:40.718Z,10.30
2023-04-21T13:25:08.229Z,10.20
2023-04-21T13:27:35.277Z,10.60
2023-04-21T13:30:02.356Z,10.60
2023-04-21T13:32:29.514Z,11.10
2023-04-21T13:34:57.966Z,8.75
2023-04-21T13:37:25.052Z,10.90
2023-04-21T13:39:52.134Z,9.77
2023-04-21T13:42:19.708Z,9.32
2023-04-21T13:44:46.860Z,10.23
2023-04-21T13:47:14.000Z,8.23
2023-04-21T13:49:41.052Z,8.17
2023-04-21T13:52:09.460Z,9.50
2023-04-21T13:54:36.560Z,8.13
2023-04-21T13:57:03.624Z,9.13
2023-04-21T13:59:31.037Z,7.67
2023-04-21T14:01:58.302Z,8.37
2023-04-21T14:04:25.815Z,8.47
2023-04-21T14:06:53.166Z,9.07
2023-04-21T14:09:21.642Z,8.50
2023-04-21T14:11:48.813Z,9.17
2023-04-21T14:14:24.183Z,8.70
2023-04-21T14:16:59.090Z,7.03
2023-04-21T14:19:26.378Z,6.90
2023-04-21T14:21:53.529Z,6.82
2023-04-21T14:24:21.997Z,7.83
2023-04-21T14:26:49.256Z,6.60
2023-04-21T14:29:16.327Z,6.57
2023-04-21T14:31:43.634Z,6.43
2023-04-21T14:34:10.869Z,8.23
2023-04-21T14:36:38.008Z,6.23
2023-04-21T14:39:05.147Z,6.83
2023-04-21T14:41:33.614Z,6.28
2023-04-21T14:44:00.712Z,8.45
2023-04-21T14:46:27.850Z,6.03
2023-04-21T14:48:55.242Z,6.22
2023-04-21T14:51:22.397Z,6.15
2023-04-21T14:53:49.520Z,6.07
2023-04-21T14:56:16.646Z,5.63
2023-04-21T14:58:45.322Z,6.07
2023-04-21T15:01:13.250Z,5.80
2023-04-21T15:03:40.496Z,5.95
2023-04-21T15:06:07.840Z,5.75
2023-04-21T15:08:35.022Z,6.82
2023-04-21T15:11:02.191Z,5.35
2023-04-21T15:13:29.530Z,6.60
2023-04-21T15:15:57.937Z,6.28
2023-04-21T15:18:25.067Z,5.68
2023-04-21T15:20:52.219Z,6.50
2023-04-21T15:23:19.333Z,5.57
2023-04-21T15:25:46.541Z,5.78
2023-04-21T15:28:13.753Z,5.90
2023-04-21T15:30:40.991Z,7.67
2023-04-21T15:33:09.573Z,5.63
2023-04-21T15:35:36.709Z,6.65
2023-04-21T15:38:03.792Z,6.32
2023-04-21T15:40:30.927Z,6.13
2023-04-21T15:42:58.101Z,5.78
2023-04-21T15:45:25.193Z,5.30
2023-04-21T15:47:52.408Z,5.30
2023-04-21T15:50:20.909Z,4.35
2023-04-21T15:52:48.104Z,5.10
2023-04-21T15:55:15.242Z,4.95
2023-04-21T15:57:42.422Z,5.00
2023-04-21T16:00:10.015Z,4.78
2023-04-21T16:02:37.472Z,4.60
2023-04-21T16:05:04.901Z,5.25
2023-04-21T16:07:33.457Z,4.82
2023-04-21T16:10:00.567Z,4.53
2023-04-21T16:12:28.035Z,7.33
2023-04-21T16:14:59.567Z,5.53
2023-04-21T16:17:33.630Z,5.83
2023-04-21T16:20:00.775Z,5.13
2023-04-21T16:22:27.860Z,4.83
2023-04-21T16:24:56.257Z,5.77
2023-04-21T16:27:23.323Z,5.50
2023-04-21T16:29:50.476Z,5.60
2023-04-21T16:32:17.576Z,6.97
2023-04-21T16:34:44.860Z,6.67
2023-04-21T16:37:12.007Z,5.33
2023-04-21T16:39:39.066Z,5.97
2023-04-21T16:42:07.534Z,5.83
2023-04-21T16:44:34.700Z,6.70
2023-04-21T16:47:01.885Z,6.50
2023-04-21T16:49:28.912Z,5.10
2023-04-21T16:51:56.100Z,6.10
2023-04-21T16:54:23.267Z,5.57
2023-04-21T16:56:50.335Z,6.80
2023-04-21T16:59:18.702Z,7.03
2023-04-21T17:01:45.884Z,5.10
2023-04-21T17:04:13.177Z,7.17
2023-04-21T17:06:40.319Z,7.23
2023-04-21T17:09:07.398Z,5.63
2023-04-21T17:11:34.509Z,6.93
2023-04-21T17:14:01.526Z,5.67
2023-04-21T17:16:30.002Z,6.50
2023-04-21T17:18:57.115Z,5.30
2023-04-21T17:21:24.211Z,7.23
2023-04-21T17:23:51.266Z,12.90
2023-04-21T17:26:18.302Z,5.17
2023-04-21T17:28:45.312Z,4.73
2023-04-21T17:31:15.805Z,4.00
2023-04-21T17:33:45.036Z,6.17
2023-04-21T17:36:12.263Z,4.73
2023-04-21T17:38:39.318Z,4.70
2023-04-21T17:41:06.383Z,4.73
2023-04-21T17:43:33.428Z,4.40
2023-04-21T17:46:00.715Z,4.10
2023-04-21T17:48:27.923Z,7.73
2023-04-21T17:50:56.308Z,6.03
2023-04-21T17:53:23.385Z,4.90
2023-04-21T17:55:50.491Z,4.70
2023-04-21T17:58:17.600Z,5.00
2023-04-21T18:00:44.731Z,4.50
2023-04-21T18:03:11.900Z,7.87
2023-04-21T18:05:39.642Z,3.50
2023-04-21T18:08:08.095Z,4.87
2023-04-21T18:10:36.406Z,3.93
2023-04-21T18:13:03.494Z,3.13
2023-04-21T18:15:30.709Z,5.27
2023-04-21T18:17:57.902Z,3.83
2023-04-21T18:20:25.001Z,3.20
2023-04-21T18:22:53.716Z,4.43
2023-04-21T18:25:40.885Z,5.80
2023-04-21T18:28:09.402Z,4.70
2023-04-21T18:30:36.538Z,4.83
2023-04-21T18:33:03.698Z,5.33
2023-04-21T18:35:30.875Z,3.40
2023-04-21T18:37:57.981Z,4.80
2023-04-21T18:40:26.334Z,5.20
2023-04-21T18:42:53.420Z,4.17
2023-04-21T18:45:20.538Z,3.70
2023-04-21T18:47:47.686Z,3.90
2023-04-21T18:50:14.808Z,5.00
2023-04-21T18:52:41.841Z,6.40
2023-04-21T18:55:09.341Z,3.87
2023-04-21T18:57:37.794Z,5.93
2023-04-21T19:00:05.365Z,6.43
2023-04-21T19:02:32.633Z,5.27
2023-04-21T19:04:59.862Z,4.10
2023-04-21T19:07:26.936Z,5.00
2023-04-21T19:09:54.059Z,3.70
2023-04-21T19:12:22.325Z,6.17
2023-04-21T19:14:51.688Z,6.40
2023-04-21T19:17:19.022Z,4.70
2023-04-21T19:19:46.095Z,7.13
2023-04-21T19:22:13.242Z,3.73
2023-04-21T19:24:40.526Z,3.43
2023-04-21T19:27:07.713Z,1.93
2023-04-21T19:29:34.884Z,2.13
2023-04-21T19:32:03.283Z,3.50
2023-04-21T19:34:30.339Z,2.07
2023-04-21T19:36:57.430Z,2.43
2023-04-21T19:39:24.481Z,2.60
2023-04-21T19:41:51.505Z,5.07
2023-04-21T19:44:18.574Z,2.20
2023-04-21T19:46:45.701Z,3.93
2023-04-21T19:49:14.232Z,2.93
2023-04-21T19:51:41.305Z,2.97
2023-04-21T19:54:11.956Z,3.90
2023-04-21T19:56:39.686Z,3.80
2023-04-21T19:59:06.826Z,3.03
2023-04-21T20:01:34.406Z,7.83
2023-04-21T20:04:01.784Z,4.53
2023-04-21T20:06:30.530Z,6.30
2023-04-21T20:08:57.591Z,5.80
2023-04-21T20:11:25.633Z,4.50
2023-04-21T20:13:54.595Z,7.43
2023-04-21T20:16:21.684Z,9.80
2023-04-21T20:18:48.770Z,6.33
2023-04-21T20:21:15.820Z,7.30
2023-04-21T20:23:44.229Z,5.17
2023-04-21T20:26:11.308Z,8.13
2023-04-21T20:28:38.429Z,8.13
2023-04-21T20:31:05.503Z,3.80
2023-04-21T20:33:32.623Z,5.67
2023-04-21T20:35:59.670Z,6.80
2023-04-21T20:38:26.748Z,7.50
2023-04-21T20:40:55.154Z,6.03
2023-04-21T20:43:22.209Z,5.23
2023-04-21T20:45:49.293Z,8.43
2023-04-21T20:48:16.340Z,6.03
2023-04-21T20:50:45.748Z,5.93
2023-04-21T20:53:13.528Z,6.00
2023-04-21T20:55:40.537Z,9.80
2023-04-21T20:58:08.951Z,5.97
2023-04-21T21:00:36.020Z,6.70
2023-04-21T21:03:03.284Z,7.43
2023-04-21T21:05:30.544Z,7.20
2023-04-21T21:07:57.670Z,4.40
2023-04-21T21:10:24.788Z,8.60
2023-04-21T21:12:51.898Z,7.57
2023-04-21T21:15:20.335Z,7.20
2023-04-21T21:17:47.463Z,13.80
2023-04-21T21:20:14.603Z,7.50
2023-04-21T21:22:41.654Z,8.60
2023-04-21T21:25:09.146Z,7.40
2023-04-21T21:27:36.285Z,6.97
2023-04-21T21:30:03.775Z,7.47
2023-04-21T21:32:32.258Z,8.13
2023-04-21T21:34:59.475Z,7.53
2023-04-21T21:37:26.619Z,8.63
2023-04-21T21:39:53.626Z,8.37
2023-04-21T21:42:20.667Z,8.63
2023-04-21T21:44:47.737Z,8.60
2023-04-21T21:47:14.973Z,13.23
2023-04-21T21:49:43.454Z,10.53
2023-04-21T21:52:10.528Z,8.60
2023-04-21T21:54:37.561Z,9.50
2023-04-21T21:57:04.862Z,10.70
2023-04-21T21:59:31.960Z,10.97
2023-04-21T22:01:59.200Z,13.30
2023-04-21T22:04:26.353Z,9.23
2023-04-21T22:06:54.815Z,10.93
2023-04-21T22:09:21.945Z,12.30
2023-04-21T22:11:49.008Z,9.17
2023-04-21T22:14:22.778Z,8.73
2023-04-21T22:16:50.924Z,9.13
2023-04-21T22:19:18.024Z,11.80
2023-04-21T22:21:45.078Z,10.93
2023-04-21T22:24:13.485Z,13.50
2023-04-21T22:26:40.726Z,13.07
2023-04-21T22:29:07.879Z,10.93
2023-04-21T22:31:35.078Z,16.73
2023-04-21T22:34:02.216Z,12.93
2023-04-21T22:36:29.301Z,13.80
2023-04-21T22:38:56.415Z,11.63
2023-04-21T22:41:25.171Z,12.27
2023-04-21T22:43:52.244Z,13.03
2023-04-21T22:46:19.522Z,15.70
2023-04-21T22:48:46.829Z,12.43
2023-04-21T22:51:13.910Z,13.03
2023-04-21T22:53:40.991Z,11.00
2023-04-21T22:56:08.044Z,14.33
2023-04-21T22:58:36.486Z,13.40
2023-04-21T23:01:03.613Z,11.43
2023-04-21T23:03:31.072Z,11.57
2023-04-21T23:05:58.467Z,15.37
2023-04-21T23:08:25.530Z,12.07
2023-04-21T23:10:52.692Z,13.47
2023-04-21T23:13:19.805Z,18.40
2023-04-21T23:15:48.284Z,16.10
2023-04-21T23:18:15.317Z,13.67
2023-04-21T23:20:42.340Z,16.93
2023-04-21T23:23:09.456Z,12.20
2023-04-21T23:25:36.531Z,16.97
2023-04-21T23:28:03.633Z,13.50
2023-04-21T23:30:30.803Z,12.10
2023-04-21T23:32:59.171Z,12.63
2023-04-21T23:35:26.314Z,13.93
2023-04-21T23:37:53.389Z,16.30
2023-04-21T23:40:20.453Z,16.77
2023-04-21T23:42:47.768Z,15.70
2023-04-21T23:45:14.941Z,19.93
2023-04-21T23:47:42.285Z,17.77
2023-04-21T23:50:11.415Z,17.00
2023-04-21T23:52:38.529Z,20.43
2023-04-21T23:55:06.366Z,18.60
2023-04-21T23:57:33.414Z,15.77
